SBFZ/FOR METAR and TAF weather

Enter ICAO airport designator
Station Type Date Time Source
SBFZ METAR 2019/12/16 03:00 UTC NOAA

SBFZ 160300Z 09010KT 9999 FEW023 27/22 Q1011


Station Type Date Time Source
SBFZ Decoded METAR 2019/12/16 03:00 UTC NOAA

Fortaleza / pinto Martins , Brazil (SBFZ) 03-47S 038-32W 25M
Dec 15, 2019 - 10:00 PM EST / 2019.12.16 0300 UTC
Wind: from the E (090 degrees) at 12 MPH (10 KT):0
Visibility: greater than 7 mile(s):0
Sky conditions: mostly clear
Temperature: 80 F (27 C)
Dew Point: 71 F (22 C)
Relative Humidity: 74%
Pressure (altimeter): 29.85 in. Hg (1011 hPa)
ob: SBFZ 160300Z 09010KT 9999 FEW023 27/22 Q1011
cycle: 3

Station Type Date Time Source
SBFZ TAF 2019/12/16 06:12 UTC NOAA

TAF TAF SBFZ 160400Z 1606/1706 09008KT 9999 SCT020 TN26/1608Z TX31/1614Z
BECMG 1608/1610 12008KT SCT020 FEW025TCU
BECMG 1615/1617 09020KT SCT030
BECMG 1620/1622 05008KT CAVOK
RMK PEH

Example: see airport list